Time;durP1;ratioP1;P1;durP2;ratioP2;P2;SDS_P1;SDS_P2;PMS_P1;PMS_P2;Temp;Humidity;BMP_temperature;BMP_pressure;BME280_temperature;BME280_humidity;BME280_pressure;Samples;Min_cycle;Max_cycle;Signal;HPM_P1;HPM_P2
2022/04/20 00:00:08;;;;;;;11.93;10.82;;;;;;;9.66;53.85;100956.88;5112983;27;20407;-59
2022/04/20 00:02:35;;;;;;;11.93;10.82;;;;;;;9.58;53.71;100944.44;5044582;28;20477;-59
2022/04/20 00:05:02;;;;;;;24.13;17.02;;;;;;;9.27;54.88;100944.09;5054386;28;20425;-60
2022/04/20 00:07:29;;;;;;;12.63;11.30;;;;;;;9.16;55.04;100942.53;5062499;28;20801;-60
2022/04/20 00:09:56;;;;;;;12.88;11.57;;;;;;;9.17;55.09;100938.91;5062759;28;20432;-63
2022/04/20 00:12:23;;;;;;;11.88;10.80;;;;;;;9.12;55.35;100934.06;5059560;28;20439;-60
2022/04/20 00:14:50;;;;;;;11.73;10.63;;;;;;;8.96;55.64;100933.97;5054950;28;20416;-60
2022/04/20 00:19:28;;;;;;;11.27;10.18;;;;;;;8.91;56.14;100945.00;5101668;27;20934;-59
2022/04/20 00:21:55;;;;;;;11.30;10.20;;;;;;;9.07;55.76;100936.34;5049393;28;20424;-60
2022/04/20 00:24:22;;;;;;;11.77;10.35;;;;;;;9.27;55.16;100936.97;5059704;28;20835;-60
2022/04/20 00:26:49;;;;;;;14.40;12.90;;;;;;;9.43;54.33;100933.59;5056625;28;20426;-60
2022/04/20 00:29:16;;;;;;;15.65;12.70;;;;;;;9.46;53.96;100935.13;5052428;28;20412;-59
2022/04/20 00:31:44;;;;;;;10.10;9.10;;;;;;;9.33;54.29;100946.13;5061006;28;20478;-60
2022/04/20 00:34:11;;;;;;;9.70;8.80;;;;;;;9.11;54.25;100948.28;5052332;28;20937;-59
2022/04/20 00:36:39;;;;;;;9.57;8.52;;;;;;;9.02;54.66;100943.09;5057789;28;20417;-60
2022/04/20 00:39:29;;;;;;;9.00;8.10;;;;;;;8.80;55.48;100939.94;5101654;27;20897;-60
2022/04/20 00:41:56;;;;;;;9.45;8.27;;;;;;;8.75;55.62;100947.50;5050396;28;20506;-60
2022/04/20 00:44:24;;;;;;;9.52;8.52;;;;;;;8.66;55.97;100943.13;5059807;28;20417;-60
2022/04/20 00:46:53;;;;;;;9.00;8.20;;;;;;;8.95;55.21;100933.13;5049992;28;20428;-60
2022/04/20 00:49:22;;;;;;;10.70;9.60;;;;;;;9.22;54.82;100933.97;5060460;28;20921;-60
2022/04/20 00:51:53;;;;;;;9.05;8.20;;;;;;;9.34;54.19;100938.00;5049612;28;20913;-62
2022/04/20 00:54:20;;;;;;;8.80;8.00;;;;;;;9.30;54.16;100936.66;5060143;28;20824;-60
2022/04/20 00:56:48;;;;;;;8.73;7.90;;;;;;;9.31;53.94;100934.84;5055886;28;20473;-60
2022/04/20 00:59:18;;;;;;;9.40;8.50;;;;;;;9.30;53.80;100936.66;5044040;28;20426;-62
2022/04/20 01:01:45;;;;;;;8.97;8.17;;;;;;;9.14;54.49;100923.34;5048810;28;20559;-60
2022/04/20 01:04:12;;;;;;;9.75;8.82;;;;;;;8.92;55.37;100908.81;5066215;28;20451;-60
2022/04/20 01:06:40;;;;;;;9.30;8.30;;;;;;;9.07;54.56;100909.91;5057636;28;20426;-60
2022/04/20 01:09:07;;;;;;;9.57;8.67;;;;;;;9.16;54.21;100911.63;5051928;28;20432;-60
2022/04/20 01:11:34;;;;;;;10.90;9.15;;;;;;;8.68;55.49;100910.28;5061934;28;20908;-62
2022/04/20 01:14:03;;;;;;;10.85;9.50;;;;;;;8.41;56.40;100913.81;5048879;28;20921;-59
2022/04/20 01:16:30;;;;;;;11.00;9.43;;;;;;;8.34;56.79;100918.06;5064257;28;20820;-60
2022/04/20 01:18:57;;;;;;;11.10;10.00;;;;;;;8.17;57.16;100917.84;5055041;28;20435;-60
2022/04/20 01:21:26;;;;;;;10.55;9.38;;;;;;;8.15;57.36;100913.72;5060187;28;20449;-60
2022/04/20 01:23:53;;;;;;;10.57;9.48;;;;;;;8.49;56.38;100907.81;5048846;28;20919;-60
2022/04/20 01:26:20;;;;;;;10.18;9.18;;;;;;;8.83;55.18;100901.81;5060835;28;20915;-60
2022/04/20 01:28:48;;;;;;;10.00;9.00;;;;;;;8.84;55.15;100901.66;5055044;28;20505;-60
2022/04/20 01:32:13;;;;;;;11.52;9.27;;;;;;;8.77;55.27;100903.25;5099377;27;20410;-60
2022/04/20 01:34:40;;;;;;;10.10;9.00;;;;;;;8.58;55.80;100914.81;5066273;28;20420;-59
2022/04/20 01:37:07;;;;;;;9.38;8.48;;;;;;;8.30;56.47;100920.16;5066342;28;20927;-60
2022/04/20 01:39:34;;;;;;;10.60;9.45;;;;;;;8.53;56.29;100925.84;5066359;28;20850;-60
2022/04/20 01:42:02;;;;;;;10.60;9.50;;;;;;;8.86;55.38;100936.72;5066071;28;20459;-59
2022/04/20 01:44:29;;;;;;;10.85;9.75;;;;;;;8.95;55.19;100941.06;5066281;28;20416;-59
2022/04/20 01:46:56;;;;;;;10.07;9.07;;;;;;;8.99;55.14;100938.94;5065188;28;20420;-59
2022/04/20 01:49:24;;;;;;;10.40;9.30;;;;;;;9.08;54.92;100943.31;5051861;28;20471;-59
2022/04/20 01:51:51;;;;;;;10.07;8.73;;;;;;;9.16;54.21;100951.31;5049844;28;20461;-59
2022/04/20 01:54:19;;;;;;;9.27;8.45;;;;;;;9.22;54.63;100949.84;5053976;28;20431;-59
2022/04/20 01:56:47;;;;;;;11.60;10.45;;;;;;;9.23;54.20;100945.38;5052653;28;20917;-59
2022/04/20 01:59:15;;;;;;;11.15;9.80;;;;;;;9.27;54.33;100952.84;5059254;28;20424;-59
2022/04/20 02:04:28;;;;;;;10.52;8.75;;;;;;;9.34;54.49;100951.22;5052259;28;20407;-59
2022/04/20 02:06:56;;;;;;;9.32;8.43;;;;;;;9.36;54.26;100943.16;5066175;28;20446;-59
2022/04/20 02:09:24;;;;;;;9.25;8.40;;;;;;;9.29;54.14;100950.91;5065652;28;21019;-59
2022/04/20 02:11:51;;;;;;;9.23;8.35;;;;;;;9.25;53.81;100956.63;5065203;28;20427;-59
2022/04/20 02:14:18;;;;;;;9.00;8.25;;;;;;;9.22;54.43;100956.94;5066090;28;21317;-59
2022/04/20 02:16:45;;;;;;;11.00;8.18;;;;;;;9.06;54.70;100961.16;5065536;28;20420;-60
2022/04/20 02:19:12;;;;;;;8.70;7.90;;;;;;;8.94;55.04;100957.91;5053610;28;20486;-59
2022/04/20 02:21:40;;;;;;;9.67;8.87;;;;;;;9.08;55.07;100969.75;5052290;28;21071;-59
2022/04/20 02:24:07;;;;;;;9.10;8.30;;;;;;;9.18;54.53;100964.34;5049547;28;20493;-59
2022/04/20 02:26:34;;;;;;;9.27;8.43;;;;;;;9.26;54.38;100969.72;5050212;28;20452;-60
2022/04/20 02:29:01;;;;;;;9.73;8.53;;;;;;;9.25;54.43;100960.09;5056086;28;20430;-59
2022/04/20 02:31:28;;;;;;;9.88;8.98;;;;;;;9.27;54.32;100960.78;5064808;28;20801;-59
2022/04/20 02:33:55;;;;;;;9.52;8.55;;;;;;;9.28;54.20;100957.16;5064782;28;20935;-59
2022/04/20 02:36:22;;;;;;;407.35;297.20;;;;;;;9.32;53.60;100958.50;5065327;28;20477;-59
2022/04/20 02:38:51;;;;;;;115.47;77.80;;;;;;;9.32;53.91;100957.69;5065302;28;20420;-59
2022/04/20 02:43:13;;;;;;;108.93;101.82;;;;;;;9.30;54.06;100963.13;5105853;27;20400;-60
2022/04/20 02:45:40;;;;;;;24.88;23.00;;;;;;;9.35;54.17;100958.19;5054827;28;20925;-60
2022/04/20 02:48:07;;;;;;;11.52;10.10;;;;;;;9.40;53.75;100956.88;5049678;28;20422;-60
2022/04/20 02:50:34;;;;;;;10.15;9.25;;;;;;;9.40;53.32;100963.03;5060148;28;20443;-62
2022/04/20 02:53:01;;;;;;;16.53;15.13;;;;;;;9.43;53.37;100959.22;5055517;28;20451;-60
2022/04/20 02:55:29;;;;;;;13.10;12.00;;;;;;;9.38;54.11;100960.53;5052531;28;20461;-60
2022/04/20 02:57:56;;;;;;;18.90;17.40;;;;;;;9.41;53.40;100966.50;5062546;28;20420;-61
2022/04/20 03:00:24;;;;;;;13.43;12.13;;;;;;;9.45;54.09;100960.72;5048533;28;20421;-60
2022/04/20 03:02:51;;;;;;;18.67;17.20;;;;;;;9.44;53.90;100968.84;5044069;28;20427;-60
2022/04/20 03:05:19;;;;;;;11.60;10.55;;;;;;;9.40;54.22;100975.41;5054020;28;20428;-60
2022/04/20 03:09:28;;;;;;;11.80;10.80;;;;;;;9.35;53.82;100963.50;5144554;27;867404;-59
2022/04/20 03:11:55;;;;;;;11.15;9.95;;;;;;;9.41;54.15;100971.78;5187073;27;20410;-59
2022/04/20 03:14:22;;;;;;;13.63;12.32;;;;;;;9.41;53.94;100974.44;5173300;27;20914;-60
2022/04/20 03:16:49;;;;;;;15.30;14.00;;;;;;;9.42;53.80;100981.38;5181701;27;20444;-59
2022/04/20 03:19:16;;;;;;;14.32;12.82;;;;;;;9.41;54.29;100985.03;5177610;27;20415;-59
2022/04/20 03:21:43;;;;;;;14.52;13.23;;;;;;;9.39;54.25;100987.81;5184893;27;20924;-61
2022/04/20 03:24:10;;;;;;;12.75;11.45;;;;;;;9.42;53.78;100987.50;5186724;27;21521;-59
2022/04/20 03:26:39;;;;;;;11.07;9.50;;;;;;;9.49;54.17;100985.91;5175602;27;20914;-59
2022/04/20 03:29:06;;;;;;;10.07;8.98;;;;;;;9.09;54.61;100982.00;5179391;27;21066;-61
2022/04/20 03:31:37;;;;;;;10.68;9.57;;;;;;;8.98;55.10;100983.06;5169247;27;20407;-60
2022/04/20 03:34:04;;;;;;;11.07;9.98;;;;;;;8.94;55.06;100986.16;5170813;27;20495;-59
2022/04/20 03:36:31;;;;;;;9.80;8.60;;;;;;;8.73;55.34;100973.25;5171104;27;20444;-60
2022/04/20 03:38:58;;;;;;;10.82;9.55;;;;;;;8.93;55.02;100961.53;5180123;27;20424;-65
2022/04/20 03:41:25;;;;;;;10.57;9.57;;;;;;;9.15;54.83;100962.03;5189636;27;20406;-59
2022/04/20 03:43:54;;;;;;;10.60;9.50;;;;;;;9.19;54.02;100969.50;5189875;27;20389;-60
2022/04/20 03:46:22;;;;;;;15.35;14.05;;;;;;;9.32;54.35;100965.63;5189438;27;20774;-59
2022/04/20 03:48:49;;;;;;;15.88;14.35;;;;;;;9.43;54.17;100964.53;5189174;27;20474;-61
2022/04/20 03:51:16;;;;;;;18.52;15.80;;;;;;;9.48;53.41;100976.28;5189354;27;20914;-60
2022/04/20 03:53:45;;;;;;;11.60;10.23;;;;;;;9.50;53.35;100974.31;5189411;27;20420;-60
2022/04/20 03:56:12;;;;;;;11.32;9.43;;;;;;;8.89;54.04;100985.78;5189386;27;20489;-60
2022/04/20 03:58:39;;;;;;;8.23;7.37;;;;;;;8.74;54.35;100982.84;5189835;27;20490;-59
2022/04/20 04:01:07;;;;;;;18.77;12.63;;;;;;;8.70;54.82;100979.69;5189506;27;20414;-60
2022/04/20 04:03:36;;;;;;;14.15;10.75;;;;;;;9.02;54.00;100990.69;5189078;27;20944;-60
2022/04/20 04:06:03;;;;;;;17.95;16.25;;;;;;;9.23;54.19;100999.09;5189086;27;20437;-60
2022/04/20 04:08:30;;;;;;;27.17;24.55;;;;;;;9.27;53.57;100997.00;5189404;27;20489;-60
2022/04/20 04:10:57;;;;;;;26.48;23.73;;;;;;;9.34;53.24;101000.69;5189321;27;20407;-61
2022/04/20 04:13:24;;;;;;;22.10;19.80;;;;;;;9.41;53.18;100999.06;5188883;27;20406;-60
2022/04/20 04:15:51;;;;;;;9.38;8.00;;;;;;;9.28;53.26;101001.31;5189310;27;20906;-60
2022/04/20 04:18:20;;;;;;;17.55;14.38;;;;;;;8.89;54.44;100993.72;5189215;27;20401;-60
2022/04/20 04:20:47;;;;;;;16.15;12.63;;;;;;;9.08;54.13;101000.66;5175405;27;20401;-59
2022/04/20 04:23:14;;;;;;;19.20;14.50;;;;;;;9.16;53.69;101013.94;5174674;27;20872;-60
2022/04/20 04:25:41;;;;;;;14.77;11.38;;;;;;;9.36;52.71;101015.44;5175061;27;20434;-60
2022/04/20 04:28:08;;;;;;;11.13;9.82;;;;;;;9.44;53.17;101004.06;5174582;27;20425;-60
2022/04/20 04:32:18;;;;;;;11.30;9.30;;;;;;;9.40;52.95;101002.72;5092133;27;20488;-60
2022/04/20 04:34:45;;;;;;;8.77;7.88;;;;;;;9.59;51.93;101008.78;5059526;28;20496;-60
2022/04/20 04:37:14;;;;;;;8.80;7.30;;;;;;;9.60;52.05;101006.00;5051537;28;20445;-60
2022/04/20 04:39:41;;;;;;;8.90;7.75;;;;;;;9.68;51.98;101013.13;5058996;28;20420;-60
2022/04/20 04:42:08;;;;;;;7.20;6.50;;;;;;;9.76;50.54;101008.72;5055581;28;20573;-60
2022/04/20 04:44:36;;;;;;;13.60;12.20;;;;;;;9.36;51.77;101010.13;5057983;28;20421;-60
2022/04/20 04:49:49;;;;;;;8.93;7.72;;;;;;;9.31;51.90;100991.25;5064787;28;20407;-60
2022/04/20 04:52:16;;;;;;;7.60;6.82;;;;;;;9.33;51.79;100994.56;5064645;28;22135;-60
2022/04/20 04:54:43;;;;;;;8.10;7.30;;;;;;;9.38;51.66;100997.56;5070739;28;20444;-59
2022/04/20 04:57:12;;;;;;;9.75;8.02;;;;;;;9.42;52.01;101003.41;5068525;28;20416;-61
2022/04/20 04:59:40;;;;;;;7.50;6.70;;;;;;;9.26;52.09;101003.28;5066255;28;20479;-60
2022/04/20 05:02:08;;;;;;;8.00;6.60;;;;;;;9.04;52.57;100997.50;5063138;28;20474;-60
2022/04/20 05:04:35;;;;;;;8.68;7.68;;;;;;;9.29;52.65;100987.06;5062298;28;20944;-61
2022/04/20 05:07:04;;;;;;;7.88;7.18;;;;;;;9.34;52.65;100996.22;5064920;28;20419;-60
2022/04/20 05:09:31;;;;;;;7.78;7.03;;;;;;;9.45;51.83;101002.25;5054349;28;20418;-60
2022/04/20 05:11:59;;;;;;;8.68;7.72;;;;;;;9.13;52.57;101007.16;5047103;28;20468;-61
2022/04/20 05:14:26;;;;;;;8.30;7.50;;;;;;;9.06;53.01;101005.28;5061922;28;20920;-59
2022/04/20 05:16:55;;;;;;;7.97;7.20;;;;;;;9.12;52.31;101007.31;5053066;28;20419;-60
2022/04/20 05:19:22;;;;;;;8.32;7.53;;;;;;;8.69;53.95;101007.06;5064605;28;20423;-60
2022/04/20 05:21:49;;;;;;;8.65;7.20;;;;;;;8.83;53.05;101007.56;5056760;28;20806;-61
2022/04/20 05:24:18;;;;;;;13.00;11.60;;;;;;;8.81;53.27;101013.00;5061810;28;20451;-61
2022/04/20 05:26:45;;;;;;;8.88;7.95;;;;;;;8.52;54.27;101014.03;5061641;28;20569;-60
2022/04/20 05:29:12;;;;;;;9.50;8.57;;;;;;;8.30;54.99;101015.25;5061596;28;20448;-61
2022/04/20 05:31:39;;;;;;;9.85;8.85;;;;;;;8.53;54.28;101014.84;5050664;28;20530;-59
2022/04/20 05:34:06;;;;;;;9.45;8.55;;;;;;;8.47;54.79;101005.72;5046223;28;20457;-60
2022/04/20 05:41:39;;;;;;;9.70;8.80;;;;;;;8.72;54.09;101011.25;5064785;28;20420;-60
2022/04/20 05:42:07;;;;;;;9.88;8.88;;;;;;;9.03;53.09;101009.03;5042722;28;20954;-60
2022/04/20 05:44:34;;;;;;;10.57;9.57;;;;;;;8.69;54.28;101006.25;5044709;28;20420;-61
2022/04/20 05:47:01;;;;;;;10.50;9.30;;;;;;;8.94;53.50;101002.84;5051711;28;20438;-60
2022/04/20 05:49:28;;;;;;;11.30;10.20;;;;;;;8.81;54.19;100999.78;5050550;28;20486;-60
2022/04/20 05:51:56;;;;;;;11.10;9.45;;;;;;;8.81;54.40;101002.41;5051177;28;20429;-60
2022/04/20 05:54:24;;;;;;;11.50;10.30;;;;;;;8.76;54.36;100994.09;5051420;28;20421;-60
2022/04/20 05:56:51;;;;;;;13.65;10.00;;;;;;;8.97;54.07;100991.16;5051113;28;20451;-60
2022/04/20 05:59:18;;;;;;;12.20;10.27;;;;;;;8.90;53.65;100990.94;5051128;28;20448;-60
2022/04/20 06:01:45;;;;;;;11.25;10.10;;;;;;;8.76;54.16;100984.34;5050410;28;20922;-59
2022/04/20 06:04:12;;;;;;;11.55;10.35;;;;;;;9.32;53.14;100984.94;5050559;28;20421;-60
2022/04/20 06:06:39;;;;;;;13.18;11.18;;;;;;;9.49;52.94;100987.69;5050989;28;20459;-59
2022/04/20 06:09:06;;;;;;;12.23;9.87;;;;;;;9.46;52.22;100990.69;5051163;28;20494;-59
2022/04/20 06:11:35;;;;;;;11.70;10.35;;;;;;;9.60;52.15;100995.41;5050941;28;20428;-59
2022/04/20 06:14:02;;;;;;;13.73;10.50;;;;;;;9.43;52.54;100997.09;5050183;28;20918;-60
2022/04/20 06:16:29;;;;;;;11.30;10.20;;;;;;;9.29;52.98;100995.88;5050318;28;21366;-59
2022/04/20 06:18:56;;;;;;;12.50;10.85;;;;;;;9.36;53.05;101001.34;5051063;28;20448;-59
2022/04/20 06:21:23;;;;;;;12.15;10.60;;;;;;;9.43;53.29;100990.97;5050242;28;20412;-59
2022/04/20 06:23:51;;;;;;;11.52;10.40;;;;;;;9.42;52.78;100991.97;5048834;28;20446;-59
2022/04/20 06:26:18;;;;;;;12.20;10.98;;;;;;;9.40;52.91;100983.34;5049542;28;20430;-59
2022/04/20 06:28:47;;;;;;;13.27;10.90;;;;;;;9.31;53.78;100972.72;5047808;28;20427;-61
2022/04/20 06:31:14;;;;;;;12.13;10.93;;;;;;;9.25;53.14;100970.69;5050526;28;20464;-59
2022/04/20 06:33:41;;;;;;;12.65;11.35;;;;;;;9.28;53.45;100973.03;5050220;28;20424;-59
2022/04/20 06:36:08;;;;;;;12.88;11.57;;;;;;;9.23;53.92;100958.63;5049541;28;20484;-59
2022/04/20 06:38:35;;;;;;;13.23;11.77;;;;;;;9.19;53.33;100958.91;5045263;28;20416;-60
2022/04/20 06:41:02;;;;;;;13.93;11.90;;;;;;;9.09;53.97;100958.19;5050549;28;20431;-58
2022/04/20 06:43:29;;;;;;;13.43;12.02;;;;;;;9.46;53.39;100961.56;5051132;28;20424;-59
2022/04/20 06:45:57;;;;;;;13.20;11.70;;;;;;;9.63;53.33;100954.53;5050146;28;20479;-59
2022/04/20 06:48:25;;;;;;;13.38;11.98;;;;;;;9.64;52.24;100958.84;5048077;28;20423;-59
2022/04/20 06:50:52;;;;;;;13.80;11.90;;;;;;;9.45;53.14;100951.97;5049576;28;20421;-59
2022/04/20 06:58:50;;;;;;;12.35;11.15;;;;;;;9.18;53.17;100986.38;5034140;28;20416;-59
2022/04/20 07:01:18;;;;;;;11.98;10.77;;;;;;;9.57;53.05;100991.22;5039751;28;20779;-59
2022/04/20 07:03:45;;;;;;;11.40;10.30;;;;;;;9.46;52.61;100988.03;5049883;28;20906;-59
2022/04/20 07:06:13;;;;;;;11.75;10.52;;;;;;;9.80;52.03;100993.34;5041464;28;20427;-59
2022/04/20 07:08:40;;;;;;;14.15;11.00;;;;;;;9.90;52.13;101001.16;5031615;28;20900;-59
2022/04/20 07:11:07;;;;;;;13.40;10.20;;;;;;;9.95;51.55;101010.28;5039776;28;20927;-59
2022/04/20 07:13:34;;;;;;;11.13;9.38;;;;;;;9.95;51.33;101010.28;5031803;28;20520;-61
2022/04/20 07:16:01;;;;;;;10.80;9.70;;;;;;;9.96;51.62;101005.84;5033356;28;20475;-59
2022/04/20 07:18:30;;;;;;;11.13;10.02;;;;;;;9.87;51.44;101004.97;5034888;28;20880;-60
2022/04/20 07:20:57;;;;;;;11.00;9.90;;;;;;;9.60;52.50;101002.50;5036893;28;20426;-59
2022/04/20 07:23:24;;;;;;;9.80;8.80;;;;;;;9.88;52.36;101008.44;5040178;28;21583;-59
2022/04/20 07:25:50;;;;;;;9.18;8.25;;;;;;;10.01;50.83;101006.19;5043989;28;20420;-59
2022/04/20 07:28:17;;;;;;;9.45;8.45;;;;;;;10.05;51.33;100999.59;5039994;28;20423;-59
2022/04/20 07:30:44;;;;;;;9.75;8.70;;;;;;;9.94;51.72;101000.69;5035423;28;20423;-60
2022/04/20 07:33:14;;;;;;;9.50;8.60;;;;;;;10.16;51.12;100998.47;5041602;28;20422;-59
2022/04/20 07:35:44;;;;;;;9.73;8.73;;;;;;;10.20;51.34;100999.81;5042587;28;20984;-61
2022/04/20 07:38:12;;;;;;;9.90;8.57;;;;;;;10.17;51.03;101004.59;5047021;28;20421;-58
2022/04/20 07:40:39;;;;;;;9.48;8.57;;;;;;;10.27;51.38;101008.78;5033426;28;20417;-59
2022/04/20 07:43:06;;;;;;;10.57;8.87;;;;;;;10.43;51.00;101015.16;5042224;28;20426;-59
2022/04/20 07:45:34;;;;;;;11.77;10.38;;;;;;;10.35;51.41;101013.28;5040767;28;20417;-59
2022/04/20 07:48:01;;;;;;;11.98;10.05;;;;;;;10.46;51.12;101010.34;5034803;28;20448;-61
2022/04/20 07:50:28;;;;;;;11.88;9.80;;;;;;;10.54;50.48;101004.25;5045717;28;20988;-59
2022/04/20 07:52:59;;;;;;;11.83;10.60;;;;;;;10.63;50.74;101013.88;5035317;28;20817;-59
2022/04/20 07:55:28;;;;;;;11.25;10.15;;;;;;;10.66;50.27;101012.69;5039049;28;20919;-60
2022/04/20 07:57:56;;;;;;;12.30;10.57;;;;;;;10.70;50.39;101014.88;5034557;28;20454;-60
2022/04/20 08:00:24;;;;;;;16.77;11.65;;;;;;;10.73;50.18;101013.69;5046291;28;20493;-59
2022/04/20 08:02:52;;;;;;;14.02;12.00;;;;;;;10.77;50.54;101014.19;5044455;28;20469;-61
2022/04/20 08:05:20;;;;;;;18.30;12.18;;;;;;;10.84;49.77;101018.72;5042714;28;20515;-60
2022/04/20 08:07:47;;;;;;;16.25;13.93;;;;;;;10.85;49.64;101022.19;5045318;28;20416;-60
2022/04/20 08:10:15;;;;;;;16.50;13.50;;;;;;;10.87;50.40;101021.00;5033691;28;20843;-60
2022/04/20 08:12:45;;;;;;;22.15;16.45;;;;;;;10.95;50.45;101003.44;5044983;28;20434;-61
2022/04/20 08:15:13;;;;;;;21.80;16.38;;;;;;;11.02;50.20;101010.59;5037326;28;20507;-60
2022/04/20 08:17:40;;;;;;;15.27;13.45;;;;;;;11.05;49.45;101012.91;5039690;28;20480;-60
2022/04/20 08:20:09;;;;;;;13.20;11.70;;;;;;;11.09;49.88;101011.59;5045251;28;20926;-60
2022/04/20 08:22:42;;;;;;;13.63;11.82;;;;;;;11.18;49.38;101012.44;5049853;28;20412;-60
2022/04/20 08:25:10;;;;;;;13.55;11.90;;;;;;;11.21;48.82;101005.94;5049729;28;20424;-60
2022/04/20 08:27:39;;;;;;;14.75;13.18;;;;;;;11.21;48.58;101008.59;5049467;28;20416;-61
2022/04/20 08:30:07;;;;;;;17.58;15.77;;;;;;;11.20;48.75;101001.63;5049190;28;20408;-60
2022/04/20 08:32:35;;;;;;;18.92;13.88;;;;;;;11.29;48.83;100992.69;5038998;28;20457;-62
2022/04/20 08:35:02;;;;;;;18.88;14.95;;;;;;;11.31;48.69;100974.75;5038410;28;20466;-61
2022/04/20 08:37:29;;;;;;;17.50;14.40;;;;;;;11.32;48.60;100979.06;5047206;28;20478;-60
2022/04/20 08:39:56;;;;;;;15.65;13.00;;;;;;;11.35;48.29;100967.28;5048986;28;20415;-60
2022/04/20 08:42:25;;;;;;;15.82;12.98;;;;;;;11.31;48.46;100965.94;5048684;28;20906;-59
2022/04/20 08:45:01;;;;;;;15.40;12.40;;;;;;;11.30;48.26;100962.47;5046144;28;20509;-60
2022/04/20 08:47:29;;;;;;;14.60;12.43;;;;;;;11.46;47.58;100957.13;5055895;28;20415;-59
2022/04/20 08:54:48;;;;;;;14.18;12.32;;;;;;;11.18;48.60;100971.78;5066035;28;20461;-59
2022/04/20 08:57:19;;;;;;;12.15;10.85;;;;;;;11.24;48.45;100981.72;5061892;28;20420;-60
2022/04/20 08:59:48;;;;;;;14.05;11.23;;;;;;;11.01;49.45;100990.34;5066101;28;20408;-60
2022/04/20 09:02:16;;;;;;;13.80;11.67;;;;;;;11.06;49.17;100988.03;5065779;28;20407;-59
2022/04/20 09:04:43;;;;;;;12.37;10.60;;;;;;;11.19;48.25;100992.03;5066253;28;20400;-59
2022/04/20 09:07:15;;;;;;;16.15;11.77;;;;;;;11.12;48.91;100991.84;5065649;28;20416;-61
2022/04/20 09:09:42;;;;;;;12.40;10.90;;;;;;;10.78;49.99;100984.06;5065728;28;20416;-58
2022/04/20 09:12:12;;;;;;;12.27;10.77;;;;;;;10.78;49.39;100992.81;5065412;28;20932;-58
2022/04/20 09:14:40;;;;;;;12.65;9.98;;;;;;;10.84;49.35;100994.84;5055432;28;20408;-59
2022/04/20 09:17:11;;;;;;;12.43;10.00;;;;;;;10.90;48.81;100988.03;5065848;28;20415;-61
2022/04/20 09:19:38;;;;;;;14.63;11.45;;;;;;;10.88;48.91;100987.38;5065517;28;20418;-58
2022/04/20 09:22:20;;;;;;;13.95;12.35;;;;;;;10.98;49.72;100987.22;5065448;28;20426;-59
2022/04/20 09:24:58;;;;;;;13.40;11.35;;;;;;;10.71;50.12;100986.53;5057050;28;20408;-59
2022/04/20 09:27:26;;;;;;;12.50;11.10;;;;;;;10.57;50.79;100995.97;5056738;28;20420;-60
2022/04/20 09:29:55;;;;;;;13.43;10.73;;;;;;;10.62;49.60;100998.94;5065436;28;20517;-59
2022/04/20 09:32:39;;;;;;;16.67;12.38;;;;;;;10.76;49.65;101005.44;5064880;28;20431;-58
2022/04/20 09:35:09;;;;;;;13.43;11.43;;;;;;;10.97;49.05;101010.25;5065369;28;20420;-61
2022/04/20 09:37:37;;;;;;;20.45;13.73;;;;;;;10.89;49.50;101003.13;5066027;28;20478;-58
2022/04/20 09:40:06;;;;;;;10.57;9.50;;;;;;;10.99;49.08;101005.63;5061369;28;20411;-58
2022/04/20 09:42:35;;;;;;;10.68;9.13;;;;;;;11.22;48.83;101011.09;5058393;28;20415;-58
2022/04/20 09:45:04;;;;;;;19.25;16.90;;;;;;;11.25;49.13;101005.47;5065495;28;20415;-59
2022/04/20 09:50:22;;;;;;;9.68;8.27;;;;;;;11.19;48.89;101019.38;5065396;28;20545;-59
2022/04/20 09:52:54;;;;;;;11.98;8.35;;;;;;;11.08;49.29;101011.75;5065751;28;20460;-58
2022/04/20 09:55:32;;;;;;;10.85;8.18;;;;;;;11.01;49.91;101014.22;5064200;28;20403;-58
2022/04/20 09:58:17;;;;;;;8.85;8.00;;;;;;;11.05;48.97;101009.44;5065424;28;20459;-58
2022/04/20 10:00:46;;;;;;;8.88;7.95;;;;;;;11.18;49.51;101012.44;5065129;28;20857;-59
2022/04/20 10:03:24;;;;;;;9.23;8.30;;;;;;;10.63;50.44;101008.56;5052608;28;20855;-59
2022/04/20 10:05:51;;;;;;;8.15;7.35;;;;;;;10.88;50.09;100996.16;5048355;28;20420;-59
2022/04/20 10:08:20;;;;;;;9.00;8.10;;;;;;;10.97;50.33;100998.84;5051912;28;20767;-59
2022/04/20 10:10:48;;;;;;;9.02;8.13;;;;;;;11.04;50.81;101002.47;5051920;28;20432;-59
2022/04/20 10:13:16;;;;;;;12.60;10.82;;;;;;;11.33;49.98;101006.44;5052142;28;20424;-58
2022/04/20 10:18:31;;;;;;;8.90;7.97;;;;;;;11.05;50.24;101012.06;5051619;28;20419;-59
2022/04/20 10:21:00;;;;;;;8.70;7.90;;;;;;;11.21;50.39;101017.38;5051207;28;20840;-59
2022/04/20 10:23:30;;;;;;;8.50;7.70;;;;;;;11.13;50.53;101020.06;5051735;28;20412;-59
2022/04/20 10:26:00;;;;;;;7.53;6.82;;;;;;;10.62;50.34;101019.31;5051009;28;20424;-59
2022/04/20 10:28:31;;;;;;;7.50;6.80;;;;;;;11.05;48.91;101017.38;5051356;28;20452;-58
2022/04/20 10:31:20;;;;;;;8.55;7.75;;;;;;;10.94;50.84;101012.41;5051677;28;20927;-58
2022/04/20 10:33:48;;;;;;;11.00;10.10;;;;;;;11.18;50.81;101014.22;5050882;28;20424;-59
2022/04/20 10:36:16;;;;;;;9.45;8.55;;;;;;;11.35;51.06;101015.06;5051635;28;20419;-58
2022/04/20 10:38:45;;;;;;;8.70;7.90;;;;;;;11.04;50.59;101013.91;5051630;28;20470;-62
2022/04/20 10:41:13;;;;;;;8.93;8.10;;;;;;;10.99;50.66;101026.00;5051261;28;20459;-59
2022/04/20 10:43:42;;;;;;;12.00;10.85;;;;;;;11.28;51.76;101020.19;5051507;28;20419;-59
2022/04/20 10:46:15;;;;;;;9.15;8.25;;;;;;;11.26;52.03;101016.88;5051193;28;20450;-60
2022/04/20 10:48:47;;;;;;;8.75;7.82;;;;;;;11.35;51.87;101013.22;5050786;28;20510;-59
2022/04/20 10:51:16;;;;;;;8.23;7.50;;;;;;;11.47;51.39;101019.03;5050730;28;20435;-60
2022/04/20 10:53:46;;;;;;;7.85;7.05;;;;;;;11.48;51.81;101024.16;5051515;28;20432;-59
2022/04/20 10:56:14;;;;;;;7.47;6.70;;;;;;;11.62;50.13;101016.50;5050829;28;20452;-58
2022/04/20 10:59:11;;;;;;;8.55;7.72;;;;;;;11.46;52.11;101027.97;5050850;28;20424;-60
2022/04/20 11:02:07;;;;;;;6.78;6.05;;;;;;;11.13;50.71;101043.94;5047212;28;20420;-59
2022/04/20 11:04:37;;;;;;;5.22;4.72;;;;;;;11.28;50.18;101050.22;5031146;28;20934;-58
2022/04/20 11:07:22;;;;;;;6.47;5.20;;;;;;;11.52;49.23;101045.88;5031427;28;20492;-59
2022/04/20 11:10:05;;;;;;;6.85;6.15;;;;;;;11.59;48.89;101052.19;5030941;28;20823;-58
2022/04/20 11:18:39;;;;;;;5.90;5.30;;;;;;;11.55;49.44;101031.47;5009964;28;20489;-58
2022/04/20 11:21:16;;;;;;;5.47;4.90;;;;;;;11.47;48.57;101040.28;5048004;28;20487;-59
2022/04/20 11:24:01;;;;;;;6.30;5.30;;;;;;;11.39;48.24;101024.34;5050275;28;20408;-59
2022/04/20 11:26:31;;;;;;;5.35;4.85;;;;;;;11.35;47.77;101033.66;5050333;28;20432;-61
2022/04/20 11:29:01;;;;;;;6.72;6.03;;;;;;;11.35;49.82;101036.28;5048218;28;20482;-58
2022/04/20 11:31:36;;;;;;;6.78;6.07;;;;;;;11.35;50.60;101023.03;5043123;28;20436;-59
2022/04/20 11:34:03;;;;;;;6.30;5.70;;;;;;;11.42;51.33;101018.72;5050412;28;20448;-58
2022/04/20 11:36:30;;;;;;;6.23;5.30;;;;;;;11.40;50.80;101029.50;5049451;28;20473;-59
2022/04/20 11:38:58;;;;;;;6.47;5.87;;;;;;;11.42;50.34;101045.25;5049858;28;20423;-59
2022/04/20 11:41:26;;;;;;;6.68;6.03;;;;;;;11.43;50.30;101038.94;5047545;28;20428;-60
2022/04/20 11:43:55;;;;;;;6.88;6.28;;;;;;;11.46;51.95;101017.38;5030436;28;20428;-59
2022/04/20 11:46:23;;;;;;;6.78;6.13;;;;;;;11.37;50.78;101010.41;5030613;28;20410;-60
2022/04/20 11:48:52;;;;;;;7.03;6.30;;;;;;;11.38;49.42;101022.66;5030582;28;20837;-59
2022/04/20 11:51:25;;;;;;;8.40;7.50;;;;;;;11.47;51.47;101027.81;5030445;28;20539;-59
2022/04/20 11:53:53;;;;;;;16.27;13.70;;;;;;;11.52;52.30;101023.81;5035281;28;20416;-59
2022/04/20 11:56:37;;;;;;;17.23;15.40;;;;;;;11.49;51.81;101035.63;5050100;28;20423;-59
2022/04/20 11:59:08;;;;;;;14.57;12.40;;;;;;;11.57;52.05;101014.34;5049523;28;20801;-61
2022/04/20 12:01:36;;;;;;;9.18;8.25;;;;;;;11.48;50.92;101010.88;5049628;28;20573;-59
2022/04/20 12:04:12;;;;;;;8.80;8.00;;;;;;;11.46;51.74;101022.69;5049832;28;20412;-59
2022/04/20 12:06:45;;;;;;;12.00;10.80;;;;;;;11.57;52.63;101024.97;5049708;28;20770;-59